Fernando de Noronha Airport
SBFN : rendu visible

Aérodrome :











RETROUVEZ-NOUS SUR...

 
LOGIN :

S'inscrire | Disclaimer

   EN    FR    IT 

 









Légende :    VFR   VFR Marginal   IFR   IFR Intensif   IFR Très Intensif
Visi : 
Plafond : 
>= 8 km
>= 3000ft
5 à 8 km
1000 à 3000 ft
1500m à 5 km
500 à 1000 ft
800 à 1500m
200 à 500 ft
< 800m
< 200 ft
Symboles :   Orages  Brouillard  Fortes neiges  Fortes précipitations  Vent > 20 kt






- Altitude de l'aérodrome : 193 ft
- Code IATA : FEN


SBFN - Fernando de Noronha

DERNIER METAR :
  • 012000Z 09005KT 030V120 9999 FEW018 28/24 Q1013

METARs EXPIRÉS :
  • 011900Z 09007KT 060V130 9999 FEW020 28/25 Q1013
  • 011800Z 09008KT 050V120 9999 FEW020 29/25 Q1012

TAF TAF SBFN
Valide du 01 à 18h jusqu'au 02 à 06h UTC


011500Z 0118/0206 10010KT 9999 FEW020 TX30/0118Z TN25/0205Z
BECMG 0122/0124 12006KT SCT020 RMK PDV
FIR SBRE / Amérique du Sud



MET'MAP, la Météo Aéronautique d'un coup d'oeil ! - Copyright ORBIFLY Décembre 2007 - Disclaimer

ORBIFLY MET'MAP TEAM :

Programmation & Développement : Alexandra Zaïnal
Sur une idée originale de : Baudouin d'Aumeries
Assistance à la programmation : Marc-Olivier Méhu
Soutien technique & logistique : Manuel Goepfert

Contact : metmap@orbifly.com




SOURCES & CREDITS :

   NOAA       Earth
Advisory